Time;durP1;ratioP1;P1;durP2;ratioP2;P2;SDS_P1;SDS_P2;PMS_P1;PMS_P2;Temp;Humidity;BMP_temperature;BMP_pressure;BME280_temperature;BME280_humidity;BME280_pressure;Samples;Min_cycle;Max_cycle;Signal;HPM_P1;HPM_P2
2023/01/12 00:01:43;;;;;;;26.75;9.48;;;10.00;68.90;;;;;;6098278;29;20054;-73
2023/01/12 00:04:44;;;;;;;22.63;10.13;;;10.00;68.90;;;;;;6097799;29;20036;-73
2023/01/12 00:07:45;;;;;;;22.92;9.27;;;10.00;68.90;;;;;;6080412;29;20136;-74
2023/01/12 00:10:45;;;;;;;29.00;10.10;;;10.00;69.00;;;;;;6080881;29;20428;-73
2023/01/12 00:13:47;;;;;;;28.88;9.20;;;10.00;68.80;;;;;;6098495;29;20044;-73
2023/01/12 00:16:48;;;;;;;21.05;8.32;;;10.00;68.90;;;;;;6085796;29;20028;-72
2023/01/12 00:19:50;;;;;;;22.30;8.52;;;10.00;68.80;;;;;;6071085;29;20040;-73
2023/01/12 00:22:51;;;;;;;26.52;9.82;;;10.00;68.80;;;;;;6101726;29;20055;-72
2023/01/12 00:25:53;;;;;;;26.80;10.02;;;10.00;68.70;;;;;;6086089;29;20052;-73
2023/01/12 00:28:53;;;;;;;22.75;9.25;;;9.90;68.60;;;;;;6086597;29;20425;-72
2023/01/12 00:31:56;;;;;;;21.58;9.20;;;9.90;68.70;;;;;;6093216;29;20040;-73
2023/01/12 00:34:57;;;;;;;21.75;9.25;;;9.80;68.80;;;;;;6071226;29;20518;-72
2023/01/12 00:37:58;;;;;;;22.30;8.43;;;9.80;69.10;;;;;;6079405;29;20345;-73
2023/01/12 00:41:04;;;;;;;29.55;9.38;;;9.70;69.20;;;;;;6095939;29;20044;-72
2023/01/12 00:47:25;;;;;;;25.90;7.93;;;9.70;69.50;;;;;;6078748;29;20117;-72
2023/01/12 00:50:26;;;;;;;21.40;7.55;;;9.70;69.50;;;;;;6085432;29;20493;-72
2023/01/12 00:53:27;;;;;;;19.50;8.45;;;9.70;69.40;;;;;;6085380;29;20058;-72
2023/01/12 00:56:27;;;;;;;25.58;7.97;;;9.70;69.40;;;;;;6102833;29;20123;-72
2023/01/12 00:59:28;;;;;;;21.70;7.45;;;9.70;69.40;;;;;;6102178;29;20052;-73
2023/01/12 01:02:29;;;;;;;17.00;7.47;;;9.80;69.30;;;;;;6102200;29;20051;-72
2023/01/12 01:05:30;;;;;;;26.25;7.97;;;9.70;69.20;;;;;;6102525;29;20075;-73
2023/01/12 01:08:34;;;;;;;27.63;6.78;;;9.80;69.30;;;;;;6102268;29;20528;-73
2023/01/12 01:11:35;;;;;;;19.60;7.80;;;9.70;69.10;;;;;;6085092;29;20560;-73
2023/01/12 01:14:36;;;;;;;21.23;8.23;;;9.70;69.00;;;;;;6101655;29;20040;-72
2023/01/12 01:17:37;;;;;;;18.65;8.70;;;9.70;69.10;;;;;;6089703;29;20060;-73
2023/01/12 01:20:38;;;;;;;23.65;7.00;;;9.70;69.20;;;;;;6101781;29;20051;-73
2023/01/12 01:23:40;;;;;;;22.23;8.18;;;9.70;69.10;;;;;;6101014;29;20044;-74
2023/01/12 01:26:41;;;;;;;22.27;7.57;;;9.60;69.10;;;;;;6101083;29;20044;-72
2023/01/12 01:29:42;;;;;;;22.23;8.40;;;9.60;69.00;;;;;;6102052;29;20545;-72
2023/01/12 01:32:43;;;;;;;19.77;7.43;;;9.60;69.00;;;;;;6085679;29;20056;-72
2023/01/12 01:35:44;;;;;;;15.65;6.10;;;9.60;69.10;;;;;;6101641;29;20532;-72
2023/01/12 01:38:46;;;;;;;26.10;8.88;;;9.60;69.10;;;;;;6101461;29;20037;-72
2023/01/12 01:41:47;;;;;;;18.02;7.25;;;9.60;69.10;;;;;;6084991;29;20489;-72
2023/01/12 01:44:51;;;;;;;22.85;8.55;;;9.60;69.40;;;;;;6100012;29;20040;-73
2023/01/12 01:48:00;;;;;;;22.30;7.55;;;9.50;69.30;;;;;;6101568;29;20032;-73
2023/01/12 01:51:07;;;;;;;21.33;7.20;;;9.50;69.50;;;;;;6084793;29;20047;-72
2023/01/12 01:54:08;;;;;;;19.13;7.57;;;9.40;69.60;;;;;;6100877;29;20036;-72
2023/01/12 01:57:11;;;;;;;19.63;7.53;;;9.40;69.80;;;;;;6100172;29;20260;-72
2023/01/12 02:00:15;;;;;;;20.58;7.97;;;9.40;70.00;;;;;;6096309;29;20370;-73
2023/01/12 02:03:16;;;;;;;27.17;8.35;;;9.40;70.10;;;;;;6075331;29;20546;-73
2023/01/12 02:06:17;;;;;;;21.55;8.70;;;9.50;70.30;;;;;;6084473;29;20445;-74
2023/01/12 02:09:24;;;;;;;24.45;8.27;;;9.40;70.40;;;;;;6101070;29;20050;-72
2023/01/12 02:16:20;;;;;;;25.48;8.75;;;9.40;70.30;;;;;;6083821;29;20043;-72
2023/01/12 02:19:45;;;;;;;20.20;7.63;;;9.50;70.40;;;;;;6072325;29;20085;-72
2023/01/12 02:23:22;;;;;;;19.13;7.25;;;9.50;70.40;;;;;;6102244;29;20345;-73
2023/01/12 02:26:47;;;;;;;20.10;7.35;;;9.40;70.40;;;;;;6095210;29;20056;-73
2023/01/12 02:29:48;;;;;;;25.52;8.32;;;9.40;70.50;;;;;;6093187;29;20042;-72
2023/01/12 02:33:07;;;;;;;18.88;8.38;;;9.40;70.50;;;;;;6079064;29;20056;-73
2023/01/12 02:36:39;;;;;;;22.75;8.60;;;9.40;70.60;;;;;;6090260;29;20076;-73
2023/01/12 02:39:48;;;;;;;28.85;7.72;;;9.40;70.70;;;;;;5978731;29;20065;-72
2023/01/12 02:43:24;;;;;;;18.25;6.85;;;9.50;70.80;;;;;;5978829;29;20042;-73
2023/01/12 02:46:30;;;;;;;19.48;7.68;;;9.50;70.70;;;;;;5976391;29;20548;-73
2023/01/12 02:49:38;;;;;;;29.05;8.27;;;9.50;70.60;;;;;;5981775;29;20058;-72
2023/01/12 02:52:44;;;;;;;17.63;7.22;;;9.50;70.70;;;;;;5979073;29;20050;-73
2023/01/12 02:55:46;;;;;;;19.95;7.45;;;9.70;70.70;;;;;;5977448;29;20043;-72
2023/01/12 02:58:53;;;;;;;22.77;8.13;;;9.60;70.40;;;;;;5992034;29;20050;-73
2023/01/12 03:02:00;;;;;;;25.65;7.80;;;9.70;70.40;;;;;;5986437;29;20038;-73
2023/01/12 03:05:01;;;;;;;23.35;9.07;;;9.70;70.50;;;;;;5967495;29;20046;-73
2023/01/12 03:08:04;;;;;;;22.08;8.02;;;9.70;70.40;;;;;;5969165;29;20444;-72
2023/01/12 03:11:12;;;;;;;19.02;6.93;;;9.70;70.50;;;;;;5962463;29;20066;-72
2023/01/12 03:14:14;;;;;;;35.05;9.38;;;9.70;70.50;;;;;;5978244;29;20034;-73
2023/01/12 03:17:27;;;;;;;29.55;10.05;;;9.70;70.50;;;;;;6058826;29;20118;-72
2023/01/12 03:20:37;;;;;;;24.40;8.65;;;9.70;70.50;;;;;;6080317;29;20040;-71
2023/01/12 03:23:46;;;;;;;26.88;8.25;;;9.70;70.30;;;;;;6080122;29;20036;-73
2023/01/12 03:26:50;;;;;;;22.65;8.93;;;9.80;70.30;;;;;;6063671;29;20087;-71
2023/01/12 03:29:59;;;;;;;33.15;8.40;;;9.90;70.30;;;;;;6095685;29;20040;-72
2023/01/12 03:33:00;;;;;;;22.17;7.57;;;9.90;70.20;;;;;;6097021;29;20513;-73
2023/01/12 03:36:10;;;;;;;21.42;7.47;;;9.90;70.10;;;;;;6097082;29;20485;-73
2023/01/12 03:39:31;;;;;;;21.23;7.22;;;10.00;70.00;;;;;;6096394;29;20040;-71
2023/01/12 03:42:51;;;;;;;22.83;6.97;;;9.90;69.90;;;;;;6095177;29;20043;-72
2023/01/12 03:46:21;;;;;;;15.95;5.63;;;10.00;69.80;;;;;;6080006;29;20060;-72
2023/01/12 03:49:24;;;;;;;18.55;7.97;;;10.00;69.80;;;;;;6095920;29;20091;-73
2023/01/12 03:52:28;;;;;;;23.75;7.30;;;10.00;69.50;;;;;;6098863;29;20104;-73
2023/01/12 03:55:31;;;;;;;18.98;7.22;;;10.10;69.40;;;;;;6082526;29;20044;-72
2023/01/12 03:58:33;;;;;;;25.33;7.10;;;10.00;69.20;;;;;;6073088;29;20108;-73
2023/01/12 04:01:35;;;;;;;16.73;6.90;;;10.00;69.30;;;;;;6098631;29;20048;-72
2023/01/12 04:04:36;;;;;;;25.00;7.05;;;10.00;69.50;;;;;;6099736;29;20074;-72
2023/01/12 04:07:36;;;;;;;21.33;8.65;;;10.00;69.30;;;;;;6083420;29;20056;-72
2023/01/12 04:10:37;;;;;;;21.30;8.05;;;10.00;69.20;;;;;;6099599;29;20059;-73
2023/01/12 04:13:38;;;;;;;21.20;8.30;;;10.00;69.20;;;;;;6082901;29;20092;-73
2023/01/12 04:16:39;;;;;;;20.77;8.02;;;10.00;69.00;;;;;;6099942;29;20469;-73
2023/01/12 04:19:40;;;;;;;30.20;8.25;;;10.00;68.90;;;;;;6083152;29;20052;-72
2023/01/12 04:22:42;;;;;;;21.35;6.70;;;10.00;69.10;;;;;;6098261;29;20045;-73
2023/01/12 04:25:43;;;;;;;18.38;6.85;;;10.00;69.20;;;;;;6099563;29;20071;-73
2023/01/12 04:28:43;;;;;;;12.77;6.00;;;10.00;69.10;;;;;;6082697;29;20052;-73
2023/01/12 04:31:44;;;;;;;27.67;7.13;;;9.90;69.10;;;;;;6082371;29;20060;-73
2023/01/12 04:34:45;;;;;;;12.80;5.85;;;10.00;69.20;;;;;;6098433;29;20389;-72
2023/01/12 04:37:46;;;;;;;20.77;6.90;;;10.00;69.00;;;;;;6082585;29;20056;-73
2023/01/12 04:40:53;;;;;;;18.30;7.68;;;10.10;68.90;;;;;;6083767;29;20131;-73
2023/01/12 04:43:54;;;;;;;20.63;6.80;;;10.10;68.70;;;;;;6066310;29;20040;-72
2023/01/12 04:46:55;;;;;;;18.80;6.93;;;10.10;68.60;;;;;;6082344;29;20078;-72
2023/01/12 04:49:55;;;;;;;19.10;6.97;;;10.10;69.30;;;;;;6097536;29;20059;-72
2023/01/12 04:52:57;;;;;;;18.88;7.32;;;10.10;68.50;;;;;;6081420;29;20099;-72
2023/01/12 04:56:01;;;;;;;18.20;6.03;;;10.10;68.40;;;;;;6097867;29;20119;-72
2023/01/12 04:59:02;;;;;;;18.20;5.90;;;10.10;68.50;;;;;;6082541;29;20044;-73
2023/01/12 05:02:03;;;;;;;9.48;4.88;;;10.10;68.40;;;;;;6099691;29;20040;-73
2023/01/12 05:05:04;;;;;;;16.67;5.82;;;10.10;68.20;;;;;;6087462;29;20048;-72
2023/01/12 05:11:27;;;;;;;8.98;4.65;;;10.10;68.10;;;;;;6096950;29;20048;-72
2023/01/12 05:14:28;;;;;;;10.32;5.80;;;10.10;68.10;;;;;;6081501;29;20040;-74
2023/01/12 05:17:31;;;;;;;9.65;4.72;;;10.10;68.10;;;;;;6081455;29;20085;-72
2023/01/12 05:20:32;;;;;;;16.15;5.22;;;10.10;68.10;;;;;;6085068;29;20040;-74
2023/01/12 05:23:33;;;;;;;14.70;5.07;;;10.20;67.90;;;;;;6080851;29;20036;-73
2023/01/12 05:26:34;;;;;;;13.15;5.47;;;10.10;67.70;;;;;;6081535;29;20119;-73
2023/01/12 05:29:35;;;;;;;10.68;4.60;;;10.10;67.80;;;;;;6097846;29;20046;-72
2023/01/12 05:32:37;;;;;;;12.40;4.68;;;10.10;67.80;;;;;;6097916;29;20048;-72
2023/01/12 05:35:38;;;;;;;12.80;4.85;;;10.10;67.80;;;;;;6096291;29;20465;-72
2023/01/12 05:38:39;;;;;;;15.48;5.13;;;10.10;67.80;;;;;;6087942;29;20039;-72
2023/01/12 05:44:59;;;;;;;16.20;5.10;;;10.10;67.80;;;;;;6096699;29;20135;-74
2023/01/12 05:48:01;;;;;;;14.50;5.55;;;10.20;67.90;;;;;;6097635;29;20410;-73
2023/01/12 05:51:02;;;;;;;15.90;4.70;;;10.20;67.70;;;;;;6081025;29;20029;-73
2023/01/12 05:54:03;;;;;;;11.77;5.03;;;10.20;67.60;;;;;;6080888;29;20473;-71
2023/01/12 05:57:04;;;;;;;17.75;5.35;;;10.20;67.40;;;;;;6065225;29;20104;-72
2023/01/12 06:00:06;;;;;;;11.80;5.18;;;10.20;67.40;;;;;;6069281;29;20461;-72
2023/01/12 06:03:13;;;;;;;17.43;5.20;;;10.20;67.50;;;;;;6097149;29;20044;-72
2023/01/12 06:06:14;;;;;;;17.63;6.47;;;10.20;67.40;;;;;;6069145;29;20047;-74
2023/01/12 06:09:19;;;;;;;17.15;6.75;;;10.30;67.30;;;;;;6090761;29;20052;-71
2023/01/12 06:15:39;;;;;;;14.05;5.82;;;10.20;67.20;;;;;;6094720;29;20119;-71
2023/01/12 06:18:40;;;;;;;14.60;6.47;;;10.20;67.10;;;;;;6096576;29;20480;-72
2023/01/12 06:21:41;;;;;;;12.63;5.82;;;10.20;67.10;;;;;;6079645;29;20048;-72
2023/01/12 06:24:42;;;;;;;11.85;4.53;;;10.20;67.10;;;;;;6079635;29;20501;-72
2023/01/12 06:27:42;;;;;;;12.93;5.18;;;10.20;67.10;;;;;;6100249;29;20412;-73
2023/01/12 06:30:43;;;;;;;11.88;5.90;;;10.20;67.00;;;;;;6099966;29;20067;-72
2023/01/12 06:33:44;;;;;;;16.92;5.63;;;10.20;66.90;;;;;;6118481;29;20118;-72
2023/01/12 06:36:45;;;;;;;13.15;4.97;;;10.20;66.60;;;;;;6079884;29;20044;-73
2023/01/12 06:39:46;;;;;;;24.33;7.40;;;10.10;66.70;;;;;;6078641;29;20043;-72
2023/01/12 06:42:47;;;;;;;20.95;6.10;;;10.10;66.80;;;;;;6078689;29;20036;-73
2023/01/12 06:45:47;;;;;;;18.80;7.35;;;10.00;67.00;;;;;;6095548;29;20048;-73
2023/01/12 06:48:48;;;;;;;15.85;6.38;;;10.00;67.10;;;;;;6078847;29;20043;-73
2023/01/12 06:51:50;;;;;;;20.65;6.97;;;10.00;67.40;;;;;;6100515;29;20133;-73
2023/01/12 06:54:51;;;;;;;22.95;8.95;;;9.90;67.50;;;;;;6101165;29;20418;-73
2023/01/12 06:57:52;;;;;;;19.67;6.07;;;9.90;67.60;;;;;;6095427;29;20044;-73
2023/01/12 07:00:53;;;;;;;13.77;6.43;;;10.00;67.50;;;;;;6075733;29;20106;-74
2023/01/12 07:03:54;;;;;;;16.15;5.50;;;10.00;67.30;;;;;;6060992;29;20114;-74
2023/01/12 07:06:55;;;;;;;15.77;6.55;;;9.90;67.30;;;;;;6076440;29;20478;-75
2023/01/12 07:09:56;;;;;;;31.38;6.15;;;10.00;67.40;;;;;;6093043;29;20048;-75
2023/01/12 07:12:59;;;;;;;26.85;6.32;;;9.90;67.30;;;;;;6076147;29;20055;-74
2023/01/12 07:16:00;;;;;;;16.40;6.00;;;9.90;67.10;;;;;;6095384;29;20051;-73
2023/01/12 07:19:01;;;;;;;13.15;5.93;;;9.90;67.10;;;;;;6095739;29;20051;-73
2023/01/12 07:22:02;;;;;;;19.00;6.25;;;9.90;67.50;;;;;;6078249;29;20373;-73
2023/01/12 07:25:05;;;;;;;14.60;5.60;;;9.90;67.60;;;;;;6081042;29;20058;-74
2023/01/12 07:28:05;;;;;;;13.15;5.90;;;9.90;67.60;;;;;;6086060;29;20044;-74
2023/01/12 07:31:06;;;;;;;14.55;6.15;;;9.90;67.40;;;;;;6100095;29;20386;-73
2023/01/12 07:34:07;;;;;;;13.07;5.45;;;10.00;67.50;;;;;;6099858;29;20096;-74
2023/01/12 07:37:08;;;;;;;13.02;6.05;;;10.00;67.40;;;;;;6098541;29;20085;-73
2023/01/12 07:40:09;;;;;;;17.20;6.05;;;10.00;67.30;;;;;;6099384;29;20048;-73
2023/01/12 07:43:12;;;;;;;16.23;7.50;;;10.00;67.30;;;;;;6099087;29;20041;-73
2023/01/12 07:46:13;;;;;;;19.10;6.30;;;9.90;67.20;;;;;;6084606;29;20072;-72
2023/01/12 07:49:14;;;;;;;19.85;6.80;;;9.90;67.10;;;;;;6083066;29;20044;-74
2023/01/12 07:52:15;;;;;;;17.35;6.20;;;9.90;67.10;;;;;;6084409;29;20048;-73
2023/01/12 07:55:18;;;;;;;17.20;5.43;;;9.80;67.20;;;;;;6084653;29;20040;-74
2023/01/12 07:58:18;;;;;;;16.40;6.03;;;9.80;67.20;;;;;;6100971;29;20103;-74
2023/01/12 08:01:19;;;;;;;13.63;6.10;;;9.70;67.30;;;;;;6084425;29;20488;-74
2023/01/12 08:04:23;;;;;;;12.00;6.07;;;9.70;67.50;;;;;;6099453;29;20112;-74
2023/01/12 08:07:25;;;;;;;16.00;5.20;;;9.70;67.50;;;;;;6084301;29;20131;-73
2023/01/12 08:10:26;;;;;;;20.80;7.28;;;9.70;67.50;;;;;;6099347;29;20462;-74
2023/01/12 08:13:27;;;;;;;25.95;8.75;;;9.70;67.20;;;;;;6083420;29;20127;-73
2023/01/12 08:16:42;;;;;;;13.80;6.50;;;9.80;67.30;;;;;;6084239;29;20378;-73
2023/01/12 08:19:54;;;;;;;17.95;6.80;;;9.80;67.20;;;;;;6084672;29;20102;-75
2023/01/12 08:22:58;;;;;;;16.60;6.38;;;9.90;67.10;;;;;;6101077;29;20047;-73
2023/01/12 08:26:03;;;;;;;20.42;7.97;;;9.90;66.80;;;;;;6101444;29;20047;-74
2023/01/12 08:29:16;;;;;;;19.00;7.65;;;9.90;66.90;;;;;;6100513;29;20052;-74
2023/01/12 08:32:17;;;;;;;24.27;7.97;;;10.00;67.00;;;;;;6099704;29;20063;-73
2023/01/12 08:35:22;;;;;;;17.58;7.70;;;10.00;66.70;;;;;;6098121;29;20461;-73
2023/01/12 08:38:23;;;;;;;24.13;7.72;;;10.00;66.60;;;;;;6100434;29;20051;-73
2023/01/12 08:41:33;;;;;;;16.73;6.47;;;10.00;66.50;;;;;;6099742;29;20044;-73
2023/01/12 08:44:35;;;;;;;22.92;7.05;;;10.10;66.40;;;;;;6082521;29;20051;-74
2023/01/12 08:47:39;;;;;;;16.60;7.00;;;10.10;66.40;;;;;;6083023;29;20048;-74
2023/01/12 08:50:40;;;;;;;17.75;6.38;;;10.20;66.50;;;;;;6099528;29;20063;-74
2023/01/12 08:53:41;;;;;;;14.13;6.88;;;10.30;66.30;;;;;;6098374;29;20353;-73
2023/01/12 08:56:42;;;;;;;18.92;5.93;;;10.30;66.10;;;;;;6098914;29;20116;-74
2023/01/12 08:59:43;;;;;;;20.42;6.90;;;10.50;65.90;;;;;;6082974;29;20055;-74
2023/01/12 09:02:43;;;;;;;13.52;5.47;;;10.50;65.60;;;;;;6082728;29;20477;-74
2023/01/12 09:05:46;;;;;;;13.43;5.65;;;10.60;65.40;;;;;;6099257;29;20112;-74
2023/01/12 09:08:51;;;;;;;16.00;5.70;;;10.60;64.90;;;;;;6081254;29;20041;-73
2023/01/12 09:11:52;;;;;;;16.45;5.95;;;10.60;65.00;;;;;;6098657;29;20059;-73
2023/01/12 09:14:53;;;;;;;14.38;5.50;;;10.60;65.00;;;;;;6082553;29;20050;-75
2023/01/12 09:17:54;;;;;;;15.35;5.38;;;10.70;64.90;;;;;;6082128;29;20051;-74
2023/01/12 09:21:07;;;;;;;23.15;6.15;;;10.70;64.60;;;;;;6081792;29;20444;-73
2023/01/12 09:24:08;;;;;;;12.88;6.03;;;10.80;64.20;;;;;;6094237;29;20480;-73
2023/01/12 09:27:09;;;;;;;25.60;6.93;;;10.80;64.00;;;;;;6083197;29;20123;-73
2023/01/12 09:30:10;;;;;;;29.38;7.50;;;10.80;64.10;;;;;;6082222;29;20381;-74
2023/01/12 09:33:11;;;;;;;17.20;6.43;;;10.90;64.00;;;;;;6081770;29;20059;-74
2023/01/12 09:36:18;;;;;;;14.43;6.75;;;10.80;63.90;;;;;;6098216;29;20048;-75
2023/01/12 09:39:19;;;;;;;12.50;6.00;;;10.90;63.80;;;;;;6098697;29;20048;-73
2023/01/12 09:49:04;;;;;;;20.85;7.30;;;11.00;63.20;;;;;;6098106;29;20036;-74
2023/01/12 09:52:05;;;;;;;21.80;6.55;;;11.10;63.10;;;;;;6097879;29;20465;-75
2023/01/12 09:55:17;;;;;;;26.15;7.20;;;11.10;63.00;;;;;;6065530;29;20059;-73
2023/01/12 09:58:38;;;;;;;18.58;6.28;;;11.10;62.90;;;;;;6082394;29;20425;-75
2023/01/12 10:01:39;;;;;;;20.33;6.15;;;11.10;62.60;;;;;;6095580;29;20055;-73
2023/01/12 10:04:40;;;;;;;21.10;6.22;;;11.10;62.90;;;;;;6097533;29;20043;-73
2023/01/12 10:07:42;;;;;;;13.10;5.30;;;11.10;62.70;;;;;;6081586;29;20047;-73
2023/01/12 10:11:11;;;;;;;18.83;5.82;;;11.10;62.70;;;;;;6079421;29;20118;-72
2023/01/12 10:14:23;;;;;;;20.50;6.90;;;11.20;62.80;;;;;;5979645;29;20160;-73
2023/01/12 10:18:03;;;;;;;18.42;5.95;;;11.20;62.70;;;;;;5956587;29;20118;-73
2023/01/12 10:21:09;;;;;;;16.58;6.35;;;11.20;62.00;;;;;;5909214;30;20063;-73
2023/01/12 10:24:12;;;;;;;14.32;5.82;;;11.20;61.80;;;;;;5909027;30;20043;-74
2023/01/12 10:27:15;;;;;;;19.25;6.93;;;11.20;62.00;;;;;;5910452;30;20124;-73
2023/01/12 10:30:34;;;;;;;19.30;6.75;;;11.20;62.00;;;;;;5896713;30;20047;-73
2023/01/12 10:33:35;;;;;;;18.75;7.50;;;11.30;62.10;;;;;;5924882;30;20058;-73
2023/01/12 10:36:43;;;;;;;22.65;8.32;;;11.40;62.00;;;;;;5913346;30;20044;-73
2023/01/12 10:39:44;;;;;;;13.30;5.07;;;11.50;61.80;;;;;;5896663;30;20146;-75
2023/01/12 10:46:16;;;;;;;21.63;7.07;;;11.60;61.10;;;;;;5889225;30;20119;-73
2023/01/12 10:49:21;;;;;;;17.98;7.38;;;11.70;61.70;;;;;;5893468;30;20466;-75
2023/01/12 10:52:37;;;;;;;16.27;6.82;;;11.80;60.80;;;;;;5985165;29;20087;-75
2023/01/12 10:55:40;;;;;;;17.75;6.55;;;12.00;60.70;;;;;;5993189;29;20034;-72
2023/01/12 10:58:42;;;;;;;18.30;6.63;;;12.30;60.30;;;;;;6077470;29;20065;-74
2023/01/12 11:01:44;;;;;;;13.98;5.35;;;12.60;59.80;;;;;;6096619;29;20047;-74
2023/01/12 11:04:47;;;;;;;14.23;5.07;;;13.00;59.30;;;;;;6096661;29;20067;-74
2023/01/12 11:07:48;;;;;;;11.20;4.60;;;13.30;59.10;;;;;;6081283;29;20058;-75
2023/01/12 11:10:49;;;;;;;16.00;4.43;;;13.50;57.60;;;;;;6064807;29;20044;-74
2023/01/12 11:13:56;;;;;;;10.75;5.18;;;13.70;57.30;;;;;;6079221;29;20048;-73
2023/01/12 11:17:13;;;;;;;13.82;5.70;;;14.10;56.90;;;;;;6097561;29;20095;-74
2023/01/12 11:20:33;;;;;;;23.65;5.35;;;14.50;55.90;;;;;;6096316;29;20059;-74
2023/01/12 11:23:44;;;;;;;9.35;4.55;;;14.90;54.70;;;;;;6081247;29;20190;-74
2023/01/12 11:26:54;;;;;;;11.25;4.80;;;15.00;54.50;;;;;;6096737;29;20429;-74
2023/01/12 11:30:06;;;;;;;17.42;6.75;;;15.00;54.10;;;;;;6089183;29;20381;-74
2023/01/12 11:33:17;;;;;;;41.60;13.85;;;14.80;54.10;;;;;;6070198;29;20507;-73
2023/01/12 11:36:31;;;;;;;42.85;15.90;;;14.60;54.10;;;;;;6062349;29;20040;-73
2023/01/12 11:39:34;;;;;;;26.42;10.70;;;14.40;54.20;;;;;;6059876;29;20239;-74
2023/01/12 11:46:04;;;;;;;12.10;5.22;;;14.60;54.70;;;;;;6099214;29;20458;-75
2023/01/12 11:49:31;;;;;;;11.02;4.80;;;15.20;53.60;;;;;;6102932;29;20517;-72
2023/01/12 11:52:33;;;;;;;18.77;6.30;;;15.10;53.20;;;;;;6101800;29;20438;-75
2023/01/12 11:55:47;;;;;;;15.98;5.25;;;15.20;53.20;;;;;;6086939;29;20032;-75
2023/01/12 11:59:13;;;;;;;12.50;4.75;;;15.40;52.50;;;;;;6098937;29;20051;-75
2023/01/12 12:02:37;;;;;;;21.42;5.47;;;15.40;52.20;;;;;;6083686;29;20040;-74
2023/01/12 12:06:03;;;;;;;8.57;3.75;;;15.30;52.80;;;;;;6084253;29;20048;-75
2023/01/12 12:09:22;;;;;;;11.82;3.75;;;15.30;52.90;;;;;;6100430;29;20036;-74
2023/01/12 12:12:35;;;;;;;11.00;5.15;;;15.30;52.70;;;;;;6109290;29;20052;-74
2023/01/12 12:15:54;;;;;;;10.00;3.75;;;15.20;52.60;;;;;;6096876;29;20072;-73
2023/01/12 12:19:22;;;;;;;12.63;5.78;;;15.10;52.50;;;;;;6084656;29;20116;-74
2023/01/12 12:22:41;;;;;;;12.18;5.32;;;14.90;53.00;;;;;;6079756;29;20041;-73
2023/01/12 12:26:04;;;;;;;12.65;4.78;;;15.00;53.90;;;;;;6078022;29;20136;-74
2023/01/12 12:29:17;;;;;;;13.85;5.13;;;15.00;53.30;;;;;;6080149;29;20104;-73
2023/01/12 12:32:21;;;;;;;17.08;5.28;;;15.00;53.20;;;;;;6082576;29;20068;-74
2023/01/12 12:35:31;;;;;;;13.13;5.57;;;15.00;53.20;;;;;;6054425;29;20203;-73
2023/01/12 12:38:35;;;;;;;16.75;6.97;;;15.00;53.30;;;;;;6055158;29;20136;-76
2023/01/12 12:45:31;;;;;;;14.85;4.97;;;14.90;53.50;;;;;;6036537;29;20056;-74
2023/01/12 12:48:42;;;;;;;13.18;5.80;;;14.80;53.70;;;;;;6073986;29;20085;-74
2023/01/12 12:51:44;;;;;;;14.95;6.18;;;14.70;53.90;;;;;;6076256;29;20045;-73
2023/01/12 12:54:45;;;;;;;16.67;5.93;;;14.60;53.90;;;;;;6060296;29;20036;-74
2023/01/12 12:58:02;;;;;;;17.45;6.15;;;14.50;54.10;;;;;;6077553;29;20037;-75
2023/01/12 13:01:24;;;;;;;11.50;4.95;;;14.40;54.30;;;;;;6077214;29;20060;-73
2023/01/12 13:04:45;;;;;;;14.70;5.32;;;14.30;54.40;;;;;;6069205;29;20036;-74
2023/01/12 13:07:51;;;;;;;10.70;4.28;;;14.10;54.70;;;;;;6081256;29;20051;-75
2023/01/12 13:10:58;;;;;;;10.43;4.60;;;14.00;54.80;;;;;;6091153;29;20396;-74
2023/01/12 13:14:03;;;;;;;12.63;5.13;;;13.80;55.00;;;;;;6098300;29;20055;-75
2023/01/12 13:17:18;;;;;;;11.73;4.93;;;13.80;55.40;;;;;;6098718;29;20048;-74
2023/01/12 13:20:33;;;;;;;14.45;5.68;;;13.70;55.50;;;;;;6081804;29;20177;-74
2023/01/12 13:23:45;;;;;;;9.45;4.63;;;13.60;55.70;;;;;;6099555;29;20528;-73
2023/01/12 13:26:51;;;;;;;12.30;5.28;;;13.50;55.90;;;;;;6099691;29;20074;-74
2023/01/12 13:30:21;;;;;;;19.63;5.55;;;13.40;56.10;;;;;;6099225;29;20040;-74
2023/01/12 13:33:26;;;;;;;13.52;5.25;;;13.30;56.30;;;;;;6080081;29;20044;-73
2023/01/12 13:36:30;;;;;;;12.93;6.30;;;13.30;56.30;;;;;;6073370;29;20047;-73
2023/01/12 13:39:36;;;;;;;8.38;4.65;;;13.20;56.30;;;;;;6073163;29;20057;-73
2023/01/12 13:46:13;;;;;;;13.73;5.28;;;13.20;56.40;;;;;;6071203;29;20041;-74
2023/01/12 13:49:30;;;;;;;16.07;5.67;;;13.20;56.40;;;;;;6060150;29;20131;-73
2023/01/12 13:52:34;;;;;;;17.70;5.72;;;13.30;56.50;;;;;;6079716;29;20044;-73
2023/01/12 13:55:35;;;;;;;12.07;4.90;;;13.30;56.50;;;;;;6086007;29;20169;-74
2023/01/12 13:58:39;;;;;;;13.45;5.55;;;13.40;56.50;;;;;;6064481;29;20051;-76
2023/01/12 14:01:40;;;;;;;14.20;5.13;;;13.40;56.40;;;;;;6095481;29;20389;-74
2023/01/12 14:04:53;;;;;;;9.52;4.13;;;13.40;56.30;;;;;;6094558;29;20051;-75
2023/01/12 14:08:28;;;;;;;10.55;4.70;;;13.50;56.20;;;;;;6095383;29;20055;-75
2023/01/12 14:12:15;;;;;;;16.20;4.85;;;13.50;56.20;;;;;;6094814;29;20052;-73
2023/01/12 14:18:52;;;;;;;16.52;6.28;;;13.40;56.10;;;;;;6056831;29;20040;-75
2023/01/12 14:21:59;;;;;;;20.98;5.75;;;13.40;56.20;;;;;;6079180;29;20036;-74
2023/01/12 14:25:24;;;;;;;11.40;5.93;;;13.40;56.20;;;;;;6094364;29;20032;-74
2023/01/12 14:28:25;;;;;;;18.80;8.20;;;13.40;56.30;;;;;;6094905;29;20040;-74
2023/01/12 14:31:43;;;;;;;13.40;4.50;;;13.40;56.20;;;;;;6095934;29;20036;-74
2023/01/12 14:34:51;;;;;;;14.95;5.57;;;13.40;56.20;;;;;;6089961;29;20059;-73
2023/01/12 14:37:55;;;;;;;8.95;4.20;;;13.30;56.80;;;;;;6106219;29;20689;-75
2023/01/12 14:41:00;;;;;;;8.93;3.60;;;13.30;56.30;;;;;;6073941;29;20540;-74
2023/01/12 14:47:30;;;;;;;8.65;4.10;;;13.10;56.20;;;;;;6070965;29;20143;-74
2023/01/12 14:50:31;;;;;;;12.82;4.38;;;13.10;56.30;;;;;;6093645;29;20143;-74
2023/01/12 14:53:37;;;;;;;8.80;3.58;;;13.10;56.30;;;;;;6093980;29;20131;-74
2023/01/12 14:56:43;;;;;;;9.07;4.22;;;13.10;56.20;;;;;;6095296;29;20091;-73
2023/01/12 14:59:46;;;;;;;9.13;4.65;;;13.00;56.20;;;;;;6095868;29;20040;-74
2023/01/12 15:02:55;;;;;;;13.45;4.25;;;13.00;56.30;;;;;;6079339;29;20056;-73
2023/01/12 15:05:58;;;;;;;11.25;4.25;;;13.00;56.40;;;;;;6096471;29;20481;-74
2023/01/12 15:08:59;;;;;;;9.43;4.10;;;13.00;56.50;;;;;;6096667;29;20127;-73
2023/01/12 15:12:29;;;;;;;7.68;3.95;;;13.00;56.50;;;;;;6096008;29;20056;-74
2023/01/12 15:25:34;;;;;;;8.40;3.95;;;13.00;56.10;;;;;;6077451;29;20040;-74
2023/01/12 15:28:35;;;;;;;9.40;3.60;;;13.00;56.30;;;;;;6093715;29;20339;-74
2023/01/12 15:31:37;;;;;;;15.52;4.50;;;13.00;56.30;;;;;;6095109;29;20040;-74
2023/01/12 15:34:38;;;;;;;20.10;5.88;;;13.00;56.20;;;;;;6094441;29;20059;-73
2023/01/12 15:37:39;;;;;;;12.10;5.13;;;13.10;56.20;;;;;;6095157;29;20029;-73
2023/01/12 15:40:40;;;;;;;8.82;3.47;;;13.10;56.20;;;;;;6078684;29;20422;-74
2023/01/12 15:43:41;;;;;;;9.02;4.30;;;13.10;56.20;;;;;;6078080;29;20345;-74
2023/01/12 15:46:42;;;;;;;9.40;4.40;;;13.00;56.20;;;;;;6083004;29;20438;-74
2023/01/12 15:49:45;;;;;;;10.85;4.60;;;13.00;56.20;;;;;;6082833;29;20461;-75
2023/01/12 15:52:47;;;;;;;16.08;4.47;;;13.00;56.40;;;;;;6083207;29;20500;-75
2023/01/12 15:55:48;;;;;;;11.02;4.70;;;13.00;56.50;;;;;;6098980;29;20040;-74
2023/01/12 15:58:50;;;;;;;14.57;4.97;;;12.90;56.50;;;;;;6082932;29;20127;-74
2023/01/12 16:01:51;;;;;;;13.10;4.63;;;12.90;56.70;;;;;;6099661;29;20135;-75
2023/01/12 16:04:52;;;;;;;10.48;5.15;;;12.90;56.80;;;;;;6099036;29;20432;-73
2023/01/12 16:07:53;;;;;;;9.13;4.20;;;12.90;56.90;;;;;;6089190;29;20087;-74
2023/01/12 16:11:11;;;;;;;9.68;3.92;;;12.80;56.90;;;;;;6097861;29;20087;-73
2023/01/12 16:14:13;;;;;;;18.17;5.50;;;12.90;57.00;;;;;;6099187;29;20040;-73
2023/01/12 16:17:14;;;;;;;18.45;7.78;;;12.90;56.90;;;;;;6083195;29;20500;-73
2023/01/12 16:20:17;;;;;;;16.08;5.03;;;12.90;56.90;;;;;;6099974;29;20055;-73
2023/01/12 16:23:18;;;;;;;16.17;4.68;;;12.80;56.90;;;;;;6085280;29;20051;-73
2023/01/12 16:26:22;;;;;;;10.55;4.50;;;12.80;56.90;;;;;;6108979;29;20071;-74
2023/01/12 16:29:23;;;;;;;16.75;5.07;;;12.80;56.80;;;;;;6107176;29;20040;-73
2023/01/12 16:32:25;;;;;;;12.18;4.13;;;12.80;56.80;;;;;;6094438;29;20036;-73
2023/01/12 16:35:26;;;;;;;11.25;3.97;;;12.80;56.80;;;;;;6093129;29;20082;-73
2023/01/12 16:38:27;;;;;;;10.13;4.30;;;12.70;56.80;;;;;;6110715;29;20052;-73
2023/01/12 16:41:28;;;;;;;8.75;4.40;;;12.70;56.90;;;;;;6089045;29;20052;-74
2023/01/12 16:44:37;;;;;;;15.32;5.03;;;12.70;56.90;;;;;;6066803;29;20044;-74
2023/01/12 16:47:38;;;;;;;12.65;5.20;;;12.70;57.00;;;;;;6105632;29;20059;-73
2023/01/12 16:50:40;;;;;;;12.70;5.30;;;12.70;56.90;;;;;;6091244;29;20040;-74
2023/01/12 16:53:41;;;;;;;14.55;4.50;;;12.70;56.90;;;;;;6110885;29;20473;-73